• Join FlightAware (Why Join?)
  • Login
  • US Flag 
05:26PM EDT


 

Airport Tracker/Info


-or-


 

Live Flight TrackerFlight Track Log ✈ N10NM ✈ 08-Jul-2013 ✈ KSTP - KPNM

Flight Track Log - Related Links

Times and Time Zones

All times are in EDT time to prevent confusion due to time zone crossing. See the N10NM flight status page for this flight to view local times or setup timezone preferences in your user account.

Time Position Orientation Groundspeed Altitude Reporting Facility
EDT Latitude Longitude Course Direction KTS MPH feet Rate Location/Type
09:07AM 44.9500 -93.0500 35° Northeast 83 96 2,000  Level Minneapolis TRACON
09:08AM 44.9667 -93.0333 35° Northeast 83 96 3,400 960 Climbing Minneapolis TRACON
09:09AM 44.9906 -93.0403 348° North 107 123 3,800 240 Climbing Minneapolis Center
09:10AM 45.0233 -93.0556 342° North 124 143 3,900 60 Climbing Minneapolis Center
09:11AM 45.0581 -93.0733 340° North 132 152 4,000  Climbing Minneapolis Center
09:12AM 45.0933 -93.0897 342° North 135 155 4,000  Level Minneapolis Center
09:13AM 45.1325 -93.1178 333° Northwest 133 153 4,000  Level Minneapolis Center
09:14AM 45.1619 -93.1511 321° Northwest 136 157 4,000  Level Minneapolis Center
09:15AM 45.1914 -93.1842 322° Northwest 134 154 4,000 -60 Level Minneapolis Center
09:16AM 45.2219 -93.2183 322° Northwest 140 161 3,900 -60 Descending Minneapolis Center
09:17AM 45.2519 -93.2522 322° Northwest 139 160 3,900  Level Minneapolis Center
09:18AM 45.2814 -93.2861 321° Northwest 137 158 3,900  Level Minneapolis Center
09:19AM 45.3172 -93.3283 320° Northwest 139 160 3,900  Level Minneapolis Center
09:20AM 45.3475 -93.3622 322° Northwest 139 160 3,900  Level Minneapolis Center
09:21AM 45.3789 -93.3944 324° Northwest 140 161 3,900  Level Minneapolis Center
09:22AM 45.4056 -93.4167 330° Northwest 140 161 3,900 -300 Level Minneapolis Center
09:23AM 45.4475 -93.4514 330° Northwest 146 168 3,400 -540 Descending Minneapolis Center
09:24AM 45.4844 -93.4794 332° Northwest 151 174 2,900 -300 Descending Minneapolis Center
09:25AM 45.5194 -93.5078 330° Northwest 149 171 2,900  Level Minneapolis Center
09:26AM 45.5619 -93.5397 332° Northwest 146 168 2,900  Level Minneapolis Center
09:27AM 45.5972 -93.5686 330° Northwest 146 168 2,900  Level Minneapolis Center
09:28AM 45.6328 -93.5956 332° Northwest 145 167 2,900  Level Minneapolis Center
09:29AM 45.6678 -93.6214 333° Northwest 144 166 2,900  Level Minneapolis Center
09:31AM 45.7078 -93.6628 324° Northwest 145 167 2,900  Level Minneapolis Center
09:32AM 45.7406 -93.6958 325° Northwest 146 168 2,900  Level Minneapolis Center
09:33AM 45.7750 -93.7217 332° Northwest 144 166 2,900  Level Minneapolis Center
09:34AM 45.8206 -93.7381 346° North 141 162 2,900  Level Minneapolis Center
09:35AM 45.8236 -93.6831 85° East 179 206 2,900  Level Minneapolis Center
09:36AM 45.7786 -93.7194 209° Southwest 199 229 2,900 -60 Level Minneapolis Center
09:37AM 45.7333 -93.6972 161° South 160 184 2,800 -180 Descending Minneapolis Center
09:38AM 45.6981 -93.6792 160° South 147 169 2,500 -180 Descending Minneapolis Center
09:39AM 45.6675 -93.6650 162° South 131 151 2,500 -60 Level Minneapolis Center
09:40AM 45.6336 -93.6486 161° South 117 135 2,400 -180 Descending Minneapolis Center
09:41AM 45.6067 -93.6353 161° South 115 132 2,200 -240 Descending Minneapolis Center